sensor_id;sensor_type;location;lat;lon;timestamp;temperature;humidity
43249;DHT22;29216;51.248;6.808;2023-02-01T00:02:08;6.70;99.90
43249;DHT22;29216;51.248;6.808;2023-02-01T00:04:34;6.60;99.90
43249;DHT22;29216;51.248;6.808;2023-02-01T00:06:59;6.60;99.90
43249;DHT22;29216;51.248;6.808;2023-02-01T00:09:26;6.70;99.90
43249;DHT22;29216;51.248;6.808;2023-02-01T00:11:51;6.80;99.90
43249;DHT22;29216;51.248;6.808;2023-02-01T00:14:17;6.80;99.90
43249;DHT22;29216;51.248;6.808;2023-02-01T00:16:43;6.80;99.90
43249;DHT22;29216;51.248;6.808;2023-02-01T00:19:13;6.80;99.90
43249;DHT22;29216;51.248;6.808;2023-02-01T00:21:39;6.70;99.90
43249;DHT22;29216;51.248;6.808;2023-02-01T00:24:06;6.80;99.90
43249;DHT22;29216;51.248;6.808;2023-02-01T00:28:59;6.70;99.90
43249;DHT22;29216;51.248;6.808;2023-02-01T00:31:25;6.80;99.90
43249;DHT22;29216;51.248;6.808;2023-02-01T00:33:50;6.70;99.90
43249;DHT22;29216;51.248;6.808;2023-02-01T00:36:16;6.80;99.90
43249;DHT22;29216;51.248;6.808;2023-02-01T00:38:42;6.70;99.90
43249;DHT22;29216;51.248;6.808;2023-02-01T00:41:14;6.70;99.90
43249;DHT22;29216;51.248;6.808;2023-02-01T00:43:41;6.70;99.90
43249;DHT22;29216;51.248;6.808;2023-02-01T00:46:08;6.70;99.90
43249;DHT22;29216;51.248;6.808;2023-02-01T00:48:34;6.70;99.90
43249;DHT22;29216;51.248;6.808;2023-02-01T00:51:09;6.70;99.90
43249;DHT22;29216;51.248;6.808;2023-02-01T00:53:35;6.70;99.90
43249;DHT22;29216;51.248;6.808;2023-02-01T00:56:00;6.70;99.90
43249;DHT22;29216;51.248;6.808;2023-02-01T00:58:26;6.70;99.90
43249;DHT22;29216;51.248;6.808;2023-02-01T01:03:30;6.60;99.90
43249;DHT22;29216;51.248;6.808;2023-02-01T01:05:59;6.50;99.90
43249;DHT22;29216;51.248;6.808;2023-02-01T01:08:25;6.50;99.90
43249;DHT22;29216;51.248;6.808;2023-02-01T01:10:51;6.40;99.90
43249;DHT22;29216;51.248;6.808;2023-02-01T01:13:16;6.50;99.90
43249;DHT22;29216;51.248;6.808;2023-02-01T01:15:42;6.50;99.90
43249;DHT22;29216;51.248;6.808;2023-02-01T01:18:08;6.50;99.90
43249;DHT22;29216;51.248;6.808;2023-02-01T01:20:36;6.50;99.90
43249;DHT22;29216;51.248;6.808;2023-02-01T01:23:02;6.50;99.90
43249;DHT22;29216;51.248;6.808;2023-02-01T01:25:28;6.50;99.90
43249;DHT22;29216;51.248;6.808;2023-02-01T01:27:53;6.50;99.90
43249;DHT22;29216;51.248;6.808;2023-02-01T01:30:19;6.50;99.90
43249;DHT22;29216;51.248;6.808;2023-02-01T01:32:44;6.50;99.90
43249;DHT22;29216;51.248;6.808;2023-02-01T01:35:10;6.50;99.90
43249;DHT22;29216;51.248;6.808;2023-02-01T01:37:36;6.50;99.90
43249;DHT22;29216;51.248;6.808;2023-02-01T01:40:06;6.50;99.90
43249;DHT22;29216;51.248;6.808;2023-02-01T01:42:40;6.40;99.90
43249;DHT22;29216;51.248;6.808;2023-02-01T01:50:44;6.40;96.90
43249;DHT22;29216;51.248;6.808;2023-02-01T01:53:18;6.40;98.30
43249;DHT22;29216;51.248;6.808;2023-02-01T01:55:45;6.30;97.30
43249;DHT22;29216;51.248;6.808;2023-02-01T01:58:16;6.30;91.80
43249;DHT22;29216;51.248;6.808;2023-02-01T02:00:43;6.30;93.70
43249;DHT22;29216;51.248;6.808;2023-02-01T02:03:27;6.20;94.10
43249;DHT22;29216;51.248;6.808;2023-02-01T02:05:57;6.20;96.30
43249;DHT22;29216;51.248;6.808;2023-02-01T02:08:26;6.20;96.20
43249;DHT22;29216;51.248;6.808;2023-02-01T02:10:52;6.10;95.60
43249;DHT22;29216;51.248;6.808;2023-02-01T02:13:34;6.10;96.40
43249;DHT22;29216;51.248;6.808;2023-02-01T02:19:16;6.00;96.70
43249;DHT22;29216;51.248;6.808;2023-02-01T02:41:36;5.70;99.90
43249;DHT22;29216;51.248;6.808;2023-02-01T02:47:23;5.70;99.90
43249;DHT22;29216;51.248;6.808;2023-02-01T02:49:54;5.70;99.90
43249;DHT22;29216;51.248;6.808;2023-02-01T02:52:48;5.60;97.90
43249;DHT22;29216;51.248;6.808;2023-02-01T02:55:37;5.50;99.90
43249;DHT22;29216;51.248;6.808;2023-02-01T02:58:05;5.50;99.20
43249;DHT22;29216;51.248;6.808;2023-02-01T03:00:51;5.40;99.70
43249;DHT22;29216;51.248;6.808;2023-02-01T03:03:39;5.30;99.90
43249;DHT22;29216;51.248;6.808;2023-02-01T03:06:24;5.30;99.90
43249;DHT22;29216;51.248;6.808;2023-02-01T03:08:50;5.30;99.90
43249;DHT22;29216;51.248;6.808;2023-02-01T03:11:19;5.30;99.90
43249;DHT22;29216;51.248;6.808;2023-02-01T03:13:52;5.40;99.90
43249;DHT22;29216;51.248;6.808;2023-02-01T03:16:26;5.50;99.90
43249;DHT22;29216;51.248;6.808;2023-02-01T03:21:40;5.70;99.90
43249;DHT22;29216;51.248;6.808;2023-02-01T03:24:14;5.80;98.50
43249;DHT22;29216;51.248;6.808;2023-02-01T03:26:41;5.90;98.90
43249;DHT22;29216;51.248;6.808;2023-02-01T03:29:27;5.90;99.00
43249;DHT22;29216;51.248;6.808;2023-02-01T03:31:54;6.00;98.00
43249;DHT22;29216;51.248;6.808;2023-02-01T03:34:21;6.00;97.10
43249;DHT22;29216;51.248;6.808;2023-02-01T03:36:56;6.00;95.80
43249;DHT22;29216;51.248;6.808;2023-02-01T03:42:06;6.10;95.80
43249;DHT22;29216;51.248;6.808;2023-02-01T03:44:51;6.10;94.40
43249;DHT22;29216;51.248;6.808;2023-02-01T03:47:25;6.20;93.10
43249;DHT22;29216;51.248;6.808;2023-02-01T03:52:40;6.20;92.50
43249;DHT22;29216;51.248;6.808;2023-02-01T03:55:07;6.20;92.60
43249;DHT22;29216;51.248;6.808;2023-02-01T03:57:37;6.30;92.20
43249;DHT22;29216;51.248;6.808;2023-02-01T04:00:09;6.40;89.50
43249;DHT22;29216;51.248;6.808;2023-02-01T04:02:35;6.40;88.50
43249;DHT22;29216;51.248;6.808;2023-02-01T04:05:01;6.50;84.20
43249;DHT22;29216;51.248;6.808;2023-02-01T04:07:26;6.50;83.00
43249;DHT22;29216;51.248;6.808;2023-02-01T04:09:52;6.50;82.60
43249;DHT22;29216;51.248;6.808;2023-02-01T04:12:17;6.50;82.70
43249;DHT22;29216;51.248;6.808;2023-02-01T04:14:43;6.50;84.30
43249;DHT22;29216;51.248;6.808;2023-02-01T04:17:09;6.50;85.60
43249;DHT22;29216;51.248;6.808;2023-02-01T04:19:34;6.50;83.80
43249;DHT22;29216;51.248;6.808;2023-02-01T04:22:00;6.50;81.00
43249;DHT22;29216;51.248;6.808;2023-02-01T04:24:25;6.50;80.50
43249;DHT22;29216;51.248;6.808;2023-02-01T04:26:51;6.40;85.50
43249;DHT22;29216;51.248;6.808;2023-02-01T04:29:16;6.30;90.50
43249;DHT22;29216;51.248;6.808;2023-02-01T04:31:42;6.20;92.20
43249;DHT22;29216;51.248;6.808;2023-02-01T04:34:08;6.10;93.60
43249;DHT22;29216;51.248;6.808;2023-02-01T04:36:33;6.10;94.80
43249;DHT22;29216;51.248;6.808;2023-02-01T04:38:59;6.00;95.40
43249;DHT22;29216;51.248;6.808;2023-02-01T04:41:24;6.00;96.30
43249;DHT22;29216;51.248;6.808;2023-02-01T04:43:50;6.00;96.70
43249;DHT22;29216;51.248;6.808;2023-02-01T04:46:18;6.00;97.10
43249;DHT22;29216;51.248;6.808;2023-02-01T04:48:43;6.00;97.50
43249;DHT22;29216;51.248;6.808;2023-02-01T04:51:09;5.90;98.40
43249;DHT22;29216;51.248;6.808;2023-02-01T04:53:35;5.80;98.70
43249;DHT22;29216;51.248;6.808;2023-02-01T04:56:01;5.80;99.90
43249;DHT22;29216;51.248;6.808;2023-02-01T04:58:27;5.90;99.20
43249;DHT22;29216;51.248;6.808;2023-02-01T05:00:52;6.00;98.90
43249;DHT22;29216;51.248;6.808;2023-02-01T05:03:19;5.90;98.80
43249;DHT22;29216;51.248;6.808;2023-02-01T05:05:47;5.90;98.70
43249;DHT22;29216;51.248;6.808;2023-02-01T05:08:13;6.00;98.40
43249;DHT22;29216;51.248;6.808;2023-02-01T05:10:38;6.00;97.10
43249;DHT22;29216;51.248;6.808;2023-02-01T05:13:04;6.10;96.80
43249;DHT22;29216;51.248;6.808;2023-02-01T05:15:50;6.10;94.30
43249;DHT22;29216;51.248;6.808;2023-02-01T05:18:16;6.10;93.50
43249;DHT22;29216;51.248;6.808;2023-02-01T05:20:41;6.20;92.80
43249;DHT22;29216;51.248;6.808;2023-02-01T05:23:07;6.10;93.40
43249;DHT22;29216;51.248;6.808;2023-02-01T05:25:32;6.00;94.70
43249;DHT22;29216;51.248;6.808;2023-02-01T05:27:58;6.00;95.90
43249;DHT22;29216;51.248;6.808;2023-02-01T05:30:24;5.90;96.30
43249;DHT22;29216;51.248;6.808;2023-02-01T05:32:52;5.90;97.10
43249;DHT22;29216;51.248;6.808;2023-02-01T05:35:19;5.80;99.30
43249;DHT22;29216;51.248;6.808;2023-02-01T05:37:44;5.80;99.30
43249;DHT22;29216;51.248;6.808;2023-02-01T05:40:10;5.90;98.70
43249;DHT22;29216;51.248;6.808;2023-02-01T05:42:36;5.80;98.00
43249;DHT22;29216;51.248;6.808;2023-02-01T05:45:02;5.80;99.20
43249;DHT22;29216;51.248;6.808;2023-02-01T05:47:30;5.90;98.30
43249;DHT22;29216;51.248;6.808;2023-02-01T05:49:56;5.80;99.00
43249;DHT22;29216;51.248;6.808;2023-02-01T05:52:22;5.80;99.20
43249;DHT22;29216;51.248;6.808;2023-02-01T05:54:48;5.70;99.60
43249;DHT22;29216;51.248;6.808;2023-02-01T05:57:13;5.70;99.90
43249;DHT22;29216;51.248;6.808;2023-02-01T05:59:39;5.80;99.60
43249;DHT22;29216;51.248;6.808;2023-02-01T06:02:11;5.70;99.40
43249;DHT22;29216;51.248;6.808;2023-02-01T06:04:36;5.70;99.90
43249;DHT22;29216;51.248;6.808;2023-02-01T06:07:02;5.70;99.90
43249;DHT22;29216;51.248;6.808;2023-02-01T06:09:28;5.70;99.90
43249;DHT22;29216;51.248;6.808;2023-02-01T06:11:54;5.70;99.90
43249;DHT22;29216;51.248;6.808;2023-02-01T06:14:20;5.70;99.90
43249;DHT22;29216;51.248;6.808;2023-02-01T06:16:45;5.70;99.90
43249;DHT22;29216;51.248;6.808;2023-02-01T06:19:12;5.60;99.90
43249;DHT22;29216;51.248;6.808;2023-02-01T06:21:38;5.60;99.90
43249;DHT22;29216;51.248;6.808;2023-02-01T06:24:04;5.70;99.90
43249;DHT22;29216;51.248;6.808;2023-02-01T06:26:30;5.80;99.90
43249;DHT22;29216;51.248;6.808;2023-02-01T06:28:56;5.90;99.70
43249;DHT22;29216;51.248;6.808;2023-02-01T06:31:22;6.00;99.20
43249;DHT22;29216;51.248;6.808;2023-02-01T06:33:48;6.10;96.50
43249;DHT22;29216;51.248;6.808;2023-02-01T06:36:14;6.20;94.00
43249;DHT22;29216;51.248;6.808;2023-02-01T06:38:46;6.20;93.70
43249;DHT22;29216;51.248;6.808;2023-02-01T06:41:12;6.30;93.70
43249;DHT22;29216;51.248;6.808;2023-02-01T06:43:37;6.40;91.10
43249;DHT22;29216;51.248;6.808;2023-02-01T06:46:05;6.30;92.10
43249;DHT22;29216;51.248;6.808;2023-02-01T06:48:32;6.30;92.20
43249;DHT22;29216;51.248;6.808;2023-02-01T06:50:58;6.40;95.60
43249;DHT22;29216;51.248;6.808;2023-02-01T06:53:24;6.60;92.10
43249;DHT22;29216;51.248;6.808;2023-02-01T06:55:54;6.70;86.80
43249;DHT22;29216;51.248;6.808;2023-02-01T06:58:20;6.60;85.50
43249;DHT22;29216;51.248;6.808;2023-02-01T07:00:46;6.70;85.50
43249;DHT22;29216;51.248;6.808;2023-02-01T07:03:12;6.80;75.80
43249;DHT22;29216;51.248;6.808;2023-02-01T07:05:37;6.70;77.60
43249;DHT22;29216;51.248;6.808;2023-02-01T07:08:03;6.70;76.40
43249;DHT22;29216;51.248;6.808;2023-02-01T07:10:28;6.70;75.90
43249;DHT22;29216;51.248;6.808;2023-02-01T07:12:57;6.70;77.90
43249;DHT22;29216;51.248;6.808;2023-02-01T07:15:23;6.70;79.90
43249;DHT22;29216;51.248;6.808;2023-02-01T07:17:48;6.70;79.60
43249;DHT22;29216;51.248;6.808;2023-02-01T07:20:15;6.70;80.50
43249;DHT22;29216;51.248;6.808;2023-02-01T07:22:41;6.60;80.50
43249;DHT22;29216;51.248;6.808;2023-02-01T07:25:07;6.70;80.30
43249;DHT22;29216;51.248;6.808;2023-02-01T07:27:35;6.70;81.40
43249;DHT22;29216;51.248;6.808;2023-02-01T07:30:02;6.70;82.50
43249;DHT22;29216;51.248;6.808;2023-02-01T07:32:29;6.70;80.70
43249;DHT22;29216;51.248;6.808;2023-02-01T07:34:55;6.70;77.40
43249;DHT22;29216;51.248;6.808;2023-02-01T07:37:21;6.70;80.20
43249;DHT22;29216;51.248;6.808;2023-02-01T07:39:46;6.70;80.20
43249;DHT22;29216;51.248;6.808;2023-02-01T07:42:12;6.80;76.60
43249;DHT22;29216;51.248;6.808;2023-02-01T07:44:38;6.80;75.50
43249;DHT22;29216;51.248;6.808;2023-02-01T07:47:03;6.80;77.40
43249;DHT22;29216;51.248;6.808;2023-02-01T07:49:29;6.80;72.90
43249;DHT22;29216;51.248;6.808;2023-02-01T07:51:55;6.80;74.90
43249;DHT22;29216;51.248;6.808;2023-02-01T07:54:20;6.80;75.80
43249;DHT22;29216;51.248;6.808;2023-02-01T07:56:49;6.80;76.90
43249;DHT22;29216;51.248;6.808;2023-02-01T07:59:15;6.80;74.90
43249;DHT22;29216;51.248;6.808;2023-02-01T08:01:41;6.80;80.90
43249;DHT22;29216;51.248;6.808;2023-02-01T08:04:10;6.90;72.80
43249;DHT22;29216;51.248;6.808;2023-02-01T08:06:38;6.90;70.10
43249;DHT22;29216;51.248;6.808;2023-02-01T08:09:07;7.00;73.00
43249;DHT22;29216;51.248;6.808;2023-02-01T08:11:34;7.00;71.40
43249;DHT22;29216;51.248;6.808;2023-02-01T08:14:01;7.00;69.70
43249;DHT22;29216;51.248;6.808;2023-02-01T08:16:27;7.00;70.50
43249;DHT22;29216;51.248;6.808;2023-02-01T08:18:53;7.00;71.70
43249;DHT22;29216;51.248;6.808;2023-02-01T08:21:24;7.00;69.90
43249;DHT22;29216;51.248;6.808;2023-02-01T08:23:50;7.10;67.30
43249;DHT22;29216;51.248;6.808;2023-02-01T08:26:20;7.00;70.90
43249;DHT22;29216;51.248;6.808;2023-02-01T08:28:55;7.00;74.20
43249;DHT22;29216;51.248;6.808;2023-02-01T08:31:23;7.00;71.60
43249;DHT22;29216;51.248;6.808;2023-02-01T08:33:52;7.00;72.00
43249;DHT22;29216;51.248;6.808;2023-02-01T08:36:18;7.10;69.60
43249;DHT22;29216;51.248;6.808;2023-02-01T08:38:44;7.10;67.20
43249;DHT22;29216;51.248;6.808;2023-02-01T08:41:12;7.10;66.50
43249;DHT22;29216;51.248;6.808;2023-02-01T08:43:39;7.20;67.10
43249;DHT22;29216;51.248;6.808;2023-02-01T08:46:05;7.20;66.20
43249;DHT22;29216;51.248;6.808;2023-02-01T08:48:32;7.20;65.00
43249;DHT22;29216;51.248;6.808;2023-02-01T08:51:01;7.20;62.90
43249;DHT22;29216;51.248;6.808;2023-02-01T08:53:27;7.20;65.30
43249;DHT22;29216;51.248;6.808;2023-02-01T08:55:53;7.30;61.50
43249;DHT22;29216;51.248;6.808;2023-02-01T08:58:18;7.30;65.60
43249;DHT22;29216;51.248;6.808;2023-02-01T09:00:45;7.30;63.90
43249;DHT22;29216;51.248;6.808;2023-02-01T09:03:11;7.30;59.90
43249;DHT22;29216;51.248;6.808;2023-02-01T09:05:37;7.40;55.70
43249;DHT22;29216;51.248;6.808;2023-02-01T09:08:03;7.40;53.30
43249;DHT22;29216;51.248;6.808;2023-02-01T09:10:30;7.40;53.80
43249;DHT22;29216;51.248;6.808;2023-02-01T09:12:55;7.40;54.50
43249;DHT22;29216;51.248;6.808;2023-02-01T09:15:21;7.40;51.70
43249;DHT22;29216;51.248;6.808;2023-02-01T09:17:46;7.40;52.50
43249;DHT22;29216;51.248;6.808;2023-02-01T09:20:12;7.40;53.30
43249;DHT22;29216;51.248;6.808;2023-02-01T09:22:38;7.40;50.60
43249;DHT22;29216;51.248;6.808;2023-02-01T09:25:05;7.40;50.70
43249;DHT22;29216;51.248;6.808;2023-02-01T09:27:30;7.40;50.10
43249;DHT22;29216;51.248;6.808;2023-02-01T09:29:56;7.40;52.20
43249;DHT22;29216;51.248;6.808;2023-02-01T09:32:22;7.30;53.30
43249;DHT22;29216;51.248;6.808;2023-02-01T09:34:50;7.30;55.20
43249;DHT22;29216;51.248;6.808;2023-02-01T09:37:19;7.40;49.40
43249;DHT22;29216;51.248;6.808;2023-02-01T09:39:45;7.40;50.30
43249;DHT22;29216;51.248;6.808;2023-02-01T09:42:21;7.40;49.30
43249;DHT22;29216;51.248;6.808;2023-02-01T09:45:10;7.50;45.50
43249;DHT22;29216;51.248;6.808;2023-02-01T09:47:46;7.60;44.20
43249;DHT22;29216;51.248;6.808;2023-02-01T09:50:18;7.70;42.50
43249;DHT22;29216;51.248;6.808;2023-02-01T09:53:03;7.70;41.70
43249;DHT22;29216;51.248;6.808;2023-02-01T09:58:06;7.60;44.80
43249;DHT22;29216;51.248;6.808;2023-02-01T10:00:38;7.60;45.90
43249;DHT22;29216;51.248;6.808;2023-02-01T10:03:05;7.60;44.30
43249;DHT22;29216;51.248;6.808;2023-02-01T10:05:56;7.60;43.00
43249;DHT22;29216;51.248;6.808;2023-02-01T10:14:10;7.70;40.20
43249;DHT22;29216;51.248;6.808;2023-02-01T10:16:43;7.70;41.80
43249;DHT22;29216;51.248;6.808;2023-02-01T10:22:10;7.70;45.70
43249;DHT22;29216;51.248;6.808;2023-02-01T10:24:48;7.80;32.50
43249;DHT22;29216;51.248;6.808;2023-02-01T10:27:28;7.90;35.30
43249;DHT22;29216;51.248;6.808;2023-02-01T10:29:58;8.00;34.10
43249;DHT22;29216;51.248;6.808;2023-02-01T10:32:31;8.00;27.10
43249;DHT22;29216;51.248;6.808;2023-02-01T10:34:59;8.10;24.40
43249;DHT22;29216;51.248;6.808;2023-02-01T10:37:31;8.10;21.70
43249;DHT22;29216;51.248;6.808;2023-02-01T10:39:59;8.10;25.90
43249;DHT22;29216;51.248;6.808;2023-02-01T10:42:27;8.20;22.80
43249;DHT22;29216;51.248;6.808;2023-02-01T10:44:59;8.20;18.90
43249;DHT22;29216;51.248;6.808;2023-02-01T10:47:26;8.20;16.80
43249;DHT22;29216;51.248;6.808;2023-02-01T10:52:54;8.20;15.80
43249;DHT22;29216;51.248;6.808;2023-02-01T10:55:26;8.20;16.00
43249;DHT22;29216;51.248;6.808;2023-02-01T10:58:03;8.30;12.60
43249;DHT22;29216;51.248;6.808;2023-02-01T11:00:39;8.40;5.70
43249;DHT22;29216;51.248;6.808;2023-02-01T11:05:52;8.50;2.40
43249;DHT22;29216;51.248;6.808;2023-02-01T11:08:18;8.40;1.00
43249;DHT22;29216;51.248;6.808;2023-02-01T11:10:44;8.40;2.60
43249;DHT22;29216;51.248;6.808;2023-02-01T11:13:15;8.30;1.00
43249;DHT22;29216;51.248;6.808;2023-02-01T11:15:46;8.40;1.00
43249;DHT22;29216;51.248;6.808;2023-02-01T11:18:25;8.30;1.00
43249;DHT22;29216;51.248;6.808;2023-02-01T11:20:52;8.30;1.00
43249;DHT22;29216;51.248;6.808;2023-02-01T11:23:22;8.30;1.00
43249;DHT22;29216;51.248;6.808;2023-02-01T11:25:54;8.30;1.00
43249;DHT22;29216;51.248;6.808;2023-02-01T11:28:23;8.20;1.00
43249;DHT22;29216;51.248;6.808;2023-02-01T11:30:49;8.30;5.80
43249;DHT22;29216;51.248;6.808;2023-02-01T11:33:18;8.30;1.70
43249;DHT22;29216;51.248;6.808;2023-02-01T11:35:44;8.40;1.00
43249;DHT22;29216;51.248;6.808;2023-02-01T11:38:20;8.40;1.00
43249;DHT22;29216;51.248;6.808;2023-02-01T11:40:47;8.50;1.00
43249;DHT22;29216;51.248;6.808;2023-02-01T11:43:28;8.50;1.00
43249;DHT22;29216;51.248;6.808;2023-02-01T11:46:00;8.50;1.00
43249;DHT22;29216;51.248;6.808;2023-02-01T11:48:31;8.60;1.00
43249;DHT22;29216;51.248;6.808;2023-02-01T11:51:22;8.50;1.00
43249;DHT22;29216;51.248;6.808;2023-02-01T11:56:47;8.40;1.00
43249;DHT22;29216;51.248;6.808;2023-02-01T12:15:34;8.50;1.00
43249;DHT22;29216;51.248;6.808;2023-02-01T12:21:06;8.60;1.00
43249;DHT22;29216;51.248;6.808;2023-02-01T12:46:23;8.30;1.00
43249;DHT22;29216;51.248;6.808;2023-02-01T12:49:08;8.40;1.00
43249;DHT22;29216;51.248;6.808;2023-02-01T12:51:38;8.40;2.50
43249;DHT22;29216;51.248;6.808;2023-02-01T12:56:48;8.40;1.00
43249;DHT22;29216;51.248;6.808;2023-02-01T13:01:55;8.30;8.40
43249;DHT22;29216;51.248;6.808;2023-02-01T13:04:32;8.30;9.00
43249;DHT22;29216;51.248;6.808;2023-02-01T13:07:18;8.30;9.70
43249;DHT22;29216;51.248;6.808;2023-02-01T13:09:59;8.40;6.00
43249;DHT22;29216;51.248;6.808;2023-02-01T13:12:42;8.40;2.50
43249;DHT22;29216;51.248;6.808;2023-02-01T13:15:33;8.40;5.00
43249;DHT22;29216;51.248;6.808;2023-02-01T13:18:03;8.30;8.00
43249;DHT22;29216;51.248;6.808;2023-02-01T13:20:39;8.40;3.30
43249;DHT22;29216;51.248;6.808;2023-02-01T13:25:50;8.40;4.10
43249;DHT22;29216;51.248;6.808;2023-02-01T13:42:03;8.40;12.60
43249;DHT22;29216;51.248;6.808;2023-02-01T13:44:47;8.40;22.40
43249;DHT22;29216;51.248;6.808;2023-02-01T13:47:29;8.30;27.00
43249;DHT22;29216;51.248;6.808;2023-02-01T13:49:58;8.30;29.10
43249;DHT22;29216;51.248;6.808;2023-02-01T13:52:41;8.30;25.60
43249;DHT22;29216;51.248;6.808;2023-02-01T13:57:41;8.40;12.90
43249;DHT22;29216;51.248;6.808;2023-02-01T14:10:56;8.50;1.60
43249;DHT22;29216;51.248;6.808;2023-02-01T14:13:28;8.50;1.00
43249;DHT22;29216;51.248;6.808;2023-02-01T14:23:46;8.70;1.00
43249;DHT22;29216;51.248;6.808;2023-02-01T14:26:24;8.70;1.00
43249;DHT22;29216;51.248;6.808;2023-02-01T14:28:54;8.70;1.00
43249;DHT22;29216;51.248;6.808;2023-02-01T14:31:33;8.80;1.00
43249;DHT22;29216;51.248;6.808;2023-02-01T14:34:04;8.80;1.00
43249;DHT22;29216;51.248;6.808;2023-02-01T14:36:43;8.80;1.00
43249;DHT22;29216;51.248;6.808;2023-02-01T14:39:28;8.80;1.00
43249;DHT22;29216;51.248;6.808;2023-02-01T14:42:01;8.80;1.00
43249;DHT22;29216;51.248;6.808;2023-02-01T14:44:31;8.80;1.00
43249;DHT22;29216;51.248;6.808;2023-02-01T14:47:07;8.80;1.00
43249;DHT22;29216;51.248;6.808;2023-02-01T14:52:22;8.80;1.00
43249;DHT22;29216;51.248;6.808;2023-02-01T14:54:53;8.80;1.00
43249;DHT22;29216;51.248;6.808;2023-02-01T14:57:20;8.80;1.00
43249;DHT22;29216;51.248;6.808;2023-02-01T14:59:48;8.90;1.00
43249;DHT22;29216;51.248;6.808;2023-02-01T15:02:21;8.90;1.00
43249;DHT22;29216;51.248;6.808;2023-02-01T15:04:56;8.90;1.00
43249;DHT22;29216;51.248;6.808;2023-02-01T15:07:25;8.90;1.00
43249;DHT22;29216;51.248;6.808;2023-02-01T15:09:52;8.90;1.00
43249;DHT22;29216;51.248;6.808;2023-02-01T15:12:26;8.90;1.00
43249;DHT22;29216;51.248;6.808;2023-02-01T15:15:17;8.80;1.00
43249;DHT22;29216;51.248;6.808;2023-02-01T15:17:56;8.80;1.00
43249;DHT22;29216;51.248;6.808;2023-02-01T15:20:32;8.80;1.00
43249;DHT22;29216;51.248;6.808;2023-02-01T15:23:02;8.80;1.00
43249;DHT22;29216;51.248;6.808;2023-02-01T15:25:31;8.90;1.00
43249;DHT22;29216;51.248;6.808;2023-02-01T15:27:57;8.90;1.00
43249;DHT22;29216;51.248;6.808;2023-02-01T15:30:28;8.80;1.00
43249;DHT22;29216;51.248;6.808;2023-02-01T15:35:44;8.90;1.00
43249;DHT22;29216;51.248;6.808;2023-02-01T15:46:44;8.80;1.00
43249;DHT22;29216;51.248;6.808;2023-02-01T15:49:31;8.70;1.00
43249;DHT22;29216;51.248;6.808;2023-02-01T15:52:00;8.70;4.10
43249;DHT22;29216;51.248;6.808;2023-02-01T15:54:43;8.70;4.40
43249;DHT22;29216;51.248;6.808;2023-02-01T15:57:11;8.70;5.30
43249;DHT22;29216;51.248;6.808;2023-02-01T15:59:44;8.70;8.60
43249;DHT22;29216;51.248;6.808;2023-02-01T16:02:27;8.60;12.60
43249;DHT22;29216;51.248;6.808;2023-02-01T16:04:53;8.50;15.30
43249;DHT22;29216;51.248;6.808;2023-02-01T16:07:31;8.60;14.60
43249;DHT22;29216;51.248;6.808;2023-02-01T16:09:59;8.60;14.60
43249;DHT22;29216;51.248;6.808;2023-02-01T16:12:32;8.60;15.90
43249;DHT22;29216;51.248;6.808;2023-02-01T16:15:00;8.60;14.00
43249;DHT22;29216;51.248;6.808;2023-02-01T16:17:26;8.60;14.80
43249;DHT22;29216;51.248;6.808;2023-02-01T16:19:54;8.60;15.90
43249;DHT22;29216;51.248;6.808;2023-02-01T16:22:19;8.60;18.70
43249;DHT22;29216;51.248;6.808;2023-02-01T16:24:45;8.60;17.90
43249;DHT22;29216;51.248;6.808;2023-02-01T16:27:11;8.60;20.30
43249;DHT22;29216;51.248;6.808;2023-02-01T16:29:36;8.60;22.70
43249;DHT22;29216;51.248;6.808;2023-02-01T16:32:02;8.60;26.20
43249;DHT22;29216;51.248;6.808;2023-02-01T16:34:29;8.60;27.30
43249;DHT22;29216;51.248;6.808;2023-02-01T16:36:55;8.60;26.10
43249;DHT22;29216;51.248;6.808;2023-02-01T16:39:23;8.60;25.70
43249;DHT22;29216;51.248;6.808;2023-02-01T16:41:52;8.60;28.30
43249;DHT22;29216;51.248;6.808;2023-02-01T16:44:18;8.60;27.40
43249;DHT22;29216;51.248;6.808;2023-02-01T16:46:45;8.60;30.50
43249;DHT22;29216;51.248;6.808;2023-02-01T16:49:21;8.60;30.00
43249;DHT22;29216;51.248;6.808;2023-02-01T16:51:48;8.60;30.80
43249;DHT22;29216;51.248;6.808;2023-02-01T16:54:15;8.50;32.30
43249;DHT22;29216;51.248;6.808;2023-02-01T16:56:41;8.50;31.40
43249;DHT22;29216;51.248;6.808;2023-02-01T16:59:14;8.50;34.70
43249;DHT22;29216;51.248;6.808;2023-02-01T17:01:40;8.50;38.00
43249;DHT22;29216;51.248;6.808;2023-02-01T17:04:10;8.40;38.30
43249;DHT22;29216;51.248;6.808;2023-02-01T17:06:39;8.50;36.80
43249;DHT22;29216;51.248;6.808;2023-02-01T17:09:06;8.40;37.90
43249;DHT22;29216;51.248;6.808;2023-02-01T17:11:34;8.50;36.70
43249;DHT22;29216;51.248;6.808;2023-02-01T17:14:16;8.50;36.10
43249;DHT22;29216;51.248;6.808;2023-02-01T17:16:43;8.50;37.30
43249;DHT22;29216;51.248;6.808;2023-02-01T17:19:16;8.40;40.30
43249;DHT22;29216;51.248;6.808;2023-02-01T17:22:03;8.40;40.10
43249;DHT22;29216;51.248;6.808;2023-02-01T17:24:30;8.40;42.60
43249;DHT22;29216;51.248;6.808;2023-02-01T17:26:56;8.40;44.40
43249;DHT22;29216;51.248;6.808;2023-02-01T17:29:23;8.40;43.80
43249;DHT22;29216;51.248;6.808;2023-02-01T17:31:53;8.40;45.10
43249;DHT22;29216;51.248;6.808;2023-02-01T17:34:19;8.40;43.50
43249;DHT22;29216;51.248;6.808;2023-02-01T17:36:46;8.40;42.70
43249;DHT22;29216;51.248;6.808;2023-02-01T17:39:13;8.30;43.80
43249;DHT22;29216;51.248;6.808;2023-02-01T17:41:59;8.40;41.80
43249;DHT22;29216;51.248;6.808;2023-02-01T17:44:24;8.40;40.40
43249;DHT22;29216;51.248;6.808;2023-02-01T17:46:50;8.40;36.00
43249;DHT22;29216;51.248;6.808;2023-02-01T17:49:16;8.50;37.30
43249;DHT22;29216;51.248;6.808;2023-02-01T17:51:41;8.40;37.40
43249;DHT22;29216;51.248;6.808;2023-02-01T17:54:11;8.40;39.20
43249;DHT22;29216;51.248;6.808;2023-02-01T17:56:37;8.40;39.30
43249;DHT22;29216;51.248;6.808;2023-02-01T17:59:03;8.40;38.10
43249;DHT22;29216;51.248;6.808;2023-02-01T18:01:28;8.40;36.70
43249;DHT22;29216;51.248;6.808;2023-02-01T18:03:54;8.40;38.20
43249;DHT22;29216;51.248;6.808;2023-02-01T18:06:22;8.50;33.30
43249;DHT22;29216;51.248;6.808;2023-02-01T18:08:48;8.40;35.40
43249;DHT22;29216;51.248;6.808;2023-02-01T18:11:20;8.40;35.20
43249;DHT22;29216;51.248;6.808;2023-02-01T18:13:47;8.40;33.40
43249;DHT22;29216;51.248;6.808;2023-02-01T18:16:18;8.40;37.00
43249;DHT22;29216;51.248;6.808;2023-02-01T18:18:44;8.50;34.80
43249;DHT22;29216;51.248;6.808;2023-02-01T18:21:10;8.50;34.00
43249;DHT22;29216;51.248;6.808;2023-02-01T18:23:36;8.50;34.60
43249;DHT22;29216;51.248;6.808;2023-02-01T18:26:01;8.50;33.90
43249;DHT22;29216;51.248;6.808;2023-02-01T18:28:28;8.50;31.30
43249;DHT22;29216;51.248;6.808;2023-02-01T18:30:55;8.50;31.70
43249;DHT22;29216;51.248;6.808;2023-02-01T18:33:21;8.50;35.00
43249;DHT22;29216;51.248;6.808;2023-02-01T18:35:55;8.50;36.00
43249;DHT22;29216;51.248;6.808;2023-02-01T18:38:21;8.50;36.30
43249;DHT22;29216;51.248;6.808;2023-02-01T18:40:51;8.40;38.30
43249;DHT22;29216;51.248;6.808;2023-02-01T18:43:18;8.50;40.10
43249;DHT22;29216;51.248;6.808;2023-02-01T18:45:44;8.50;40.40
43249;DHT22;29216;51.248;6.808;2023-02-01T18:48:11;8.40;42.40